createdAt,value
2022-12-03T00:00:46.941Z,0.71
2022-12-03T00:05:48.944Z,0.67
2022-12-03T00:10:46.954Z,0.63
2022-12-03T00:15:46.976Z,0.63
2022-12-03T00:20:46.927Z,0.6
2022-12-03T00:25:46.928Z,0.59
2022-12-03T00:30:46.981Z,0.58
2022-12-03T00:35:46.942Z,0.6
2022-12-03T00:40:46.993Z,0.63
2022-12-03T00:45:46.969Z,0.65
2022-12-03T00:50:46.944Z,0.71
2022-12-03T00:55:47.034Z,0.68
2022-12-03T01:00:46.931Z,0.66
2022-12-03T01:05:46.973Z,0.67
2022-12-03T01:10:46.929Z,0.63
2022-12-03T01:15:46.975Z,0.65
2022-12-03T01:20:46.937Z,0.68
2022-12-03T01:25:46.907Z,0.69
2022-12-03T01:30:46.941Z,0.72
2022-12-03T01:35:46.970Z,0.76
2022-12-03T01:40:46.925Z,0.8
2022-12-03T01:45:46.928Z,0.76
2022-12-03T01:50:46.913Z,0.78
2022-12-03T01:55:48.732Z,0.78
2022-12-03T02:00:46.893Z,0.78
2022-12-03T02:05:46.883Z,0.73
2022-12-03T02:10:46.876Z,0.68
2022-12-03T02:15:46.936Z,0.69
2022-12-03T02:20:46.888Z,0.69
2022-12-03T02:25:46.897Z,0.69
2022-12-03T02:30:46.878Z,0.71
2022-12-03T02:35:46.903Z,0.72
2022-12-03T02:40:46.892Z,0.73
2022-12-03T02:45:46.899Z,0.73
2022-12-03T02:50:46.900Z,0.75
2022-12-03T02:55:46.876Z,0.8
2022-12-03T03:00:46.963Z,0.79
2022-12-03T03:05:46.874Z,0.79
2022-12-03T03:10:46.889Z,0.79
2022-12-03T03:15:46.888Z,0.73
2022-12-03T03:20:46.865Z,0.76
2022-12-03T03:25:46.874Z,0.8
2022-12-03T03:30:46.875Z,0.81
2022-12-03T03:35:46.869Z,0.83
2022-12-03T03:40:46.865Z,0.85
2022-12-03T03:45:46.945Z,0.86
2022-12-03T03:50:46.858Z,0.84
2022-12-03T03:55:46.863Z,0.78
2022-12-03T04:00:46.898Z,0.72
2022-12-03T04:10:46.853Z,0.61
2022-12-03T04:15:46.845Z,0.63
2022-12-03T04:20:46.851Z,0.63
2022-12-03T04:30:46.908Z,0.59
2022-12-03T05:00:46.827Z,0.82
2022-12-03T05:20:52.893Z,0.86
2022-12-03T05:25:46.818Z,0.86
2022-12-03T05:30:46.968Z,0.86
2022-12-03T05:35:46.823Z,0.86
2022-12-03T05:40:46.819Z,0.82
2022-12-03T05:45:46.956Z,0.82
2022-12-03T05:50:46.811Z,0.83
2022-12-03T05:55:46.799Z,0.83
2022-12-03T06:00:46.838Z,0.85
2022-12-03T06:05:46.829Z,0.87
2022-12-03T06:10:46.804Z,0.88
2022-12-03T06:15:46.847Z,0.84
2022-12-03T06:20:46.854Z,0.84
2022-12-03T06:25:46.798Z,0.85
2022-12-03T06:30:46.848Z,0.88
2022-12-03T06:35:46.823Z,0.96
2022-12-03T06:40:46.797Z,1.02
2022-12-03T06:45:47.942Z,1.17
2022-12-03T06:50:46.806Z,1.26
2022-12-03T06:55:46.796Z,1.3
2022-12-03T07:00:46.802Z,1.33
2022-12-03T07:05:46.796Z,1.38
2022-12-03T07:10:46.807Z,1.4
2022-12-03T07:15:46.841Z,1.4
2022-12-03T07:20:46.783Z,1.4
2022-12-03T07:25:46.784Z,1.4
2022-12-03T07:30:46.793Z,1.35
2022-12-03T07:35:46.801Z,1.32
2022-12-03T07:40:46.802Z,1.38
2022-12-03T07:45:46.768Z,1.4
2022-12-03T07:50:46.778Z,1.4
2022-12-03T07:55:46.767Z,1.48
2022-12-03T08:00:46.852Z,1.54
2022-12-03T08:05:46.785Z,1.59
2022-12-03T08:10:46.786Z,1.57
2022-12-03T08:15:46.764Z,1.59
2022-12-03T08:20:46.809Z,1.59
2022-12-03T08:25:46.758Z,1.58
2022-12-03T08:30:46.746Z,1.61
2022-12-03T08:35:46.845Z,1.59
2022-12-03T08:40:46.753Z,1.63
2022-12-03T08:45:46.785Z,1.6
2022-12-03T08:50:46.752Z,1.53
2022-12-03T08:55:46.733Z,1.55
2022-12-03T09:00:46.788Z,1.62
2022-12-03T09:05:46.752Z,1.63
2022-12-03T09:10:46.751Z,1.68
2022-12-03T09:15:46.739Z,1.64
2022-12-03T09:20:46.733Z,1.7
2022-12-03T09:25:46.735Z,1.7
2022-12-03T09:30:46.754Z,1.71
2022-12-03T09:35:46.737Z,1.75
2022-12-03T09:40:46.743Z,1.78
2022-12-03T09:45:46.888Z,1.84
2022-12-03T09:50:46.744Z,1.83
2022-12-03T09:55:46.750Z,1.86
2022-12-03T10:00:46.726Z,1.91
2022-12-03T10:05:48.265Z,1.93
2022-12-03T10:10:46.740Z,1.94
2022-12-03T10:15:46.731Z,1.99
2022-12-03T10:20:46.722Z,1.99
2022-12-03T10:25:46.711Z,2.08
2022-12-03T10:30:46.786Z,2.08
2022-12-03T10:35:46.719Z,2.05
2022-12-03T10:40:46.704Z,1.99
2022-12-03T10:45:46.820Z,1.97
2022-12-03T10:50:46.735Z,2.01
2022-12-03T10:55:46.702Z,2.07
2022-12-03T11:00:46.701Z,2.09
2022-12-03T11:05:46.690Z,2.09
2022-12-03T11:10:46.728Z,2.15
2022-12-03T11:15:46.747Z,2.12
2022-12-03T11:20:46.712Z,2.12
2022-12-03T11:25:46.780Z,2.14
2022-12-03T11:30:46.817Z,2.13
2022-12-03T11:35:46.692Z,2.09
2022-12-03T11:40:46.689Z,2.08
2022-12-03T11:45:46.673Z,2.06
2022-12-03T11:50:46.674Z,2.03
2022-12-03T11:55:46.682Z,2.04
2022-12-03T12:00:46.679Z,1.94
2022-12-03T12:05:46.684Z,1.78
2022-12-03T12:10:46.674Z,1.82
2022-12-03T12:15:46.696Z,1.78
2022-12-03T12:20:46.660Z,1.78
2022-12-03T12:25:50.936Z,1.8
2022-12-03T12:30:46.678Z,1.82
2022-12-03T12:35:46.672Z,1.61
2022-12-03T12:40:46.669Z,1.4
2022-12-03T12:45:46.653Z,1.4
2022-12-03T12:50:46.677Z,1.4
2022-12-03T12:55:46.639Z,1.27
2022-12-03T13:00:46.698Z,1.25
2022-12-03T13:05:46.655Z,1.34
2022-12-03T13:10:46.636Z,1.4
2022-12-03T13:15:46.644Z,1.48
2022-12-03T13:20:46.659Z,1.52
2022-12-03T13:26:13.114Z,1.38
2022-12-03T13:30:46.633Z,1.4
2022-12-03T13:35:46.637Z,1.4
2022-12-03T13:40:46.616Z,1.4
2022-12-03T13:45:46.741Z,1.33
2022-12-03T13:50:46.637Z,1.2
2022-12-03T13:55:46.638Z,1.09
2022-12-03T14:00:46.681Z,1.17
2022-12-03T14:05:46.623Z,0.89
2022-12-03T14:10:46.630Z,0.85
2022-12-03T14:15:46.627Z,0.94
2022-12-03T14:20:46.620Z,1.05
2022-12-03T14:25:46.612Z,0.96
2022-12-03T14:30:46.622Z,0.81
2022-12-03T14:35:46.614Z,0.86
2022-12-03T14:40:46.597Z,0.88
2022-12-03T14:45:46.699Z,0.88
2022-12-03T14:50:46.607Z,0.71
2022-12-03T14:55:46.600Z,0.75
2022-12-03T15:00:46.610Z,0.75
2022-12-03T15:05:46.609Z,0.78
2022-12-03T15:10:46.588Z,0.82
2022-12-03T15:15:46.606Z,0.84
2022-12-03T15:20:46.594Z,0.83
2022-12-03T15:25:46.585Z,0.82
2022-12-03T15:30:46.589Z,0.8
2022-12-03T15:35:46.603Z,0.67
2022-12-03T15:40:46.580Z,0.67
2022-12-03T15:45:46.629Z,0.7
2022-12-03T15:50:46.588Z,0.74
2022-12-03T15:55:46.578Z,0.76
2022-12-03T16:00:46.571Z,0.75
2022-12-03T16:05:46.586Z,0.75
2022-12-03T16:10:46.582Z,0.78
2022-12-03T16:15:46.820Z,0.73
2022-12-03T16:20:46.568Z,0.79
2022-12-03T16:25:46.557Z,0.86
2022-12-03T16:30:46.669Z,0.86
2022-12-03T16:35:46.579Z,0.82
2022-12-03T16:40:46.661Z,0.83
2022-12-03T16:45:46.583Z,0.82
2022-12-03T16:50:46.573Z,0.81
2022-12-03T16:55:46.542Z,0.63
2022-12-03T17:00:46.569Z,0.61
2022-12-03T17:05:46.556Z,0.63
2022-12-03T17:10:46.620Z,0.67
2022-12-03T17:15:46.593Z,0.69
2022-12-03T17:20:46.556Z,0.71
2022-12-03T17:25:46.556Z,0.75
2022-12-03T17:30:46.610Z,0.79
2022-12-03T17:35:46.539Z,0.8
2022-12-03T17:40:46.551Z,0.83
2022-12-03T17:45:46.576Z,0.82
2022-12-03T17:50:46.549Z,0.83
2022-12-03T17:55:46.535Z,0.86
2022-12-03T18:00:46.541Z,0.88
2022-12-03T18:05:46.525Z,0.88
2022-12-03T18:10:46.539Z,0.82
2022-12-03T18:15:46.549Z,0.83
2022-12-03T18:20:46.526Z,0.83
2022-12-03T18:25:46.522Z,0.82
2022-12-03T18:30:52.135Z,0.8
2022-12-03T18:35:46.517Z,0.76
2022-12-03T18:40:46.521Z,0.8
2022-12-03T18:45:46.526Z,0.82
2022-12-03T18:50:46.518Z,0.72
2022-12-03T18:55:46.515Z,0.7
2022-12-03T19:00:46.588Z,0.55
2022-12-03T19:05:46.523Z,0.45
2022-12-03T19:10:46.513Z,0.54
2022-12-03T19:15:46.518Z,0.58
2022-12-03T19:20:46.500Z,0.63
2022-12-03T19:30:46.504Z,0.58
2022-12-03T20:10:46.520Z,0.63
2022-12-03T20:15:46.515Z,0.55
2022-12-03T20:20:46.487Z,0.46
2022-12-03T20:25:46.483Z,0.45
2022-12-03T20:30:46.523Z,0.57
2022-12-03T20:35:46.511Z,0.65
2022-12-03T20:40:46.499Z,0.65
2022-12-03T20:45:46.556Z,0.64
2022-12-03T20:50:46.489Z,0.69
2022-12-03T20:55:46.488Z,0.74
2022-12-03T21:00:46.487Z,0.78
2022-12-03T21:05:46.485Z,0.82
2022-12-03T21:10:46.479Z,0.82
2022-12-03T21:15:46.491Z,0.82
2022-12-03T21:20:46.484Z,0.81
2022-12-03T21:25:46.474Z,0.8
2022-12-03T21:30:46.524Z,0.78
2022-12-03T21:35:46.461Z,0.78
2022-12-03T21:40:46.470Z,0.76
2022-12-03T21:45:46.544Z,0.79
2022-12-03T21:55:46.463Z,0.88
2022-12-03T22:00:46.473Z,0.86
2022-12-03T22:05:46.496Z,0.82
2022-12-03T22:10:46.462Z,0.82
2022-12-03T22:15:46.557Z,0.8
2022-12-03T22:20:46.451Z,0.83
2022-12-03T22:25:46.472Z,0.85
2022-12-03T22:30:46.515Z,0.87
2022-12-03T22:35:46.453Z,0.87
2022-12-03T22:40:46.464Z,0.88
2022-12-03T22:45:46.433Z,0.94
2022-12-03T22:50:46.451Z,0.94
2022-12-03T22:55:46.485Z,0.88
2022-12-03T23:11:46.024Z,0.83
2022-12-03T23:15:46.503Z,0.86
2022-12-03T23:20:46.434Z,0.87
2022-12-03T23:25:46.431Z,0.87
2022-12-03T23:30:46.513Z,0.87
2022-12-03T23:35:46.428Z,0.93
2022-12-03T23:40:48.164Z,0.87
2022-12-03T23:45:46.442Z,0.82
2022-12-03T23:50:46.415Z,0.71
2022-12-03T23:55:46.418Z,0.68
